Nord Imagination — 3FIA8 — position and weather

sailwx.info

Track history (hours):
 
Tides and Currents Weather Stations Pressure Air Temp Water Temp Dewpoint Dewpoint Depression Visibility Wind Speed Wind Dir Waves Ship Positions

Nord Imagination

Last reported at 2017-Sep-11 21:22 UTC. Time now 2017-Sep-22 12:00 UTC.
Position N 49°45' W 003°54'.
Warning: this ship's position is 10 days out of date.

Length 179 m; draft 11.5 m.

Type: Ship (hazmat cat D). MMSI: 354828000.

Date/timePositionNaut miles runAvg speedWind from/ knotsBaromVisibWave heightAir tempDewpointWater temp
2017-Sep-11 21:22N 49°45' W 003°54'3 8.9
2017-Sep-11 21:01N 49°46' W 003°49'4 8.9
2017-Sep-11 20:31N 49°48' W 003°43'5 9.1
2017-Sep-11 20:00N 49°50' W 003°36'5 9.4
2017-Sep-11 19:31N 49°51' W 003°30'5 9.9
2017-Sep-11 19:01N 49°53' W 003°22'510.3
2017-Sep-11 18:31N 49°54' W 003°15'510.9
2017-Sep-11 18:00N 49°56' W 003°07'611.5
2017-Sep-11 17:30N 49°58' W 002°58'612.1
2017-Sep-11 17:00N 49°60' W 002°49'612.5
2017-Sep-11 16:31N 50°02' W 002°40'2112.1
2017-Sep-11 14:49N 50°07' W 002°09'310.6
2017-Sep-11 14:30N 50°08' W 002°04'5 9.7
2017-Sep-11 14:00N 50°09' W 001°57'4 8.3
2017-Sep-11 13:30N 50°09' W 001°50'4 7.4
2017-Sep-11 13:01N 50°10' W 001°45'3 6.1
2017-Sep-11 12:30N 50°11' W 001°40'3 5.5
2017-Sep-11 12:00N 50°11' W 001°36'2 4.6
2017-Sep-11 11:30N 50°11' W 001°32'2 4.1
2017-Sep-11 11:00N 50°12' W 001°29'2 4.5
2017-Sep-11 10:30N 50°12' W 001°26'2 4.3
2017-Sep-11 10:00N 50°13' W 001°22'2 4.7
2017-Sep-11 09:30N 50°14' W 001°19'3 5.3
2017-Sep-11 09:00N 50°15' W 001°16'3 6.8
2017-Sep-11 08:30N 50°17' W 001°11'4 7.9
2017-Sep-11 08:01N 50°18' W 001°05'3111.5
2017-Sep-11 05:20N 50°27' W 000°19'411.9
2017-Sep-11 05:00N 50°28' W 000°13'611.3
2017-Sep-11 04:30N 50°30' W 000°04'611.1
2017-Sep-11 04:00N 50°31' E 000°04'510.7
2017-Sep-11 03:30N 50°32' E 000°12'510.3
2017-Sep-11 03:00N 50°34' E 000°20'510.0
2017-Sep-11 02:31N 50°35' E 000°27'5 9.7
2017-Sep-11 02:01N 50°36' E 000°35'5 9.3
2017-Sep-11 01:31N 50°39' E 000°41'5 9.2
2017-Sep-11 01:00N 50°42' E 000°47'5 9.2
2017-Sep-11 00:30N 50°44' E 000°53'5 9.1
2017-Sep-11 00:00N 50°47' E 000°58'5 9.2
2017-Sep-10 23:30N 50°50' E 001°04'5 9.9
2017-Sep-10 23:00N 50°53' E 001°10'610.9
2017-Sep-10 22:26N 50°58' E 001°15'511.6
2017-Sep-10 22:00N 51°02' E 001°21'612.1
2017-Sep-10 21:31N 51°05' E 001°29'611.9
2017-Sep-10 21:01N 51°09' E 001°36'611.2
2017-Sep-10 20:30N 51°12' E 001°43'510.3
2017-Sep-10 20:01N 51°16' E 001°49'510.1
2017-Sep-10 19:31N 51°21' E 001°51'5 9.4
2017-Sep-10 19:00N 51°26' E 001°53'5 9.5
2017-Sep-10 18:31N 51°28' E 001°59'5 9.6
2017-Sep-10 18:01N 51°32' E 002°05'5 9.4
2017-Sep-10 17:31N 51°35' E 002°10'5 9.3
2017-Sep-10 17:00N 51°39' E 002°15'5 9.3
2017-Sep-10 16:31N 51°42' E 002°20'7611.6
2017-Sep-10 09:58N 52°32' E 003°53'612.4
2017-Sep-10 09:28N 52°31' E 004°04'612.6
2017-Sep-10 09:01N 52°31' E 004°13'510.8
2017-Sep-10 08:30N 52°30' E 004°22'4 7.9
2017-Sep-10 08:01N 52°29' E 004°28'4 8.4
2017-Sep-10 07:30N 52°28' E 004°35'1 2.3
2017-Sep-10 07:00N 52°28' E 004°37'1 1.3
2017-Sep-10 06:31N 52°28' E 004°38'3 5.4
2017-Sep-10 06:01N 52°27' E 004°42'3 6.3
2017-Sep-10 05:31N 52°25' E 004°46'1 2.1
2017-Sep-10 05:00N 52°24' E 004°46'0 0.0
2017-Sep-10 04:29N 52°24' E 004°46'0 0.0
2017-Sep-10 03:59N 52°24' E 004°46'0 0.0
2017-Sep-10 03:29N 52°24' E 004°46'0 0.0
2017-Sep-10 02:59N 52°24' E 004°46'0 0.0
2017-Sep-10 02:29N 52°24' E 004°46'0 0.0
2017-Sep-10 01:59N 52°24' E 004°46'0 0.0
2017-Sep-10 01:29N 52°24' E 004°46'0 0.0
2017-Sep-10 00:59N 52°24' E 004°46'0 0.0
2017-Sep-10 00:29N 52°24' E 004°46'0 0.0
2017-Sep-09 23:50N 52°24' E 004°46'0 0.0
2017-Sep-09 23:29N 52°24' E 004°46'0 0.0
2017-Sep-09 22:59N 52°24' E 004°46'0 0.0
2017-Sep-09 22:29N 52°24' E 004°46'0 0.0
2017-Sep-09 21:56N 52°24' E 004°46'0 0.0
2017-Sep-09 21:29N 52°24' E 004°46'0 0.0
2017-Sep-09 20:59N 52°24' E 004°46'0 0.0
2017-Sep-09 20:29N 52°24' E 004°46'0 0.0
2017-Sep-09 19:59N 52°24' E 004°46'0 0.0
2017-Sep-09 19:29N 52°24' E 004°46'0 0.0
2017-Sep-09 18:59N 52°24' E 004°46'0 0.0
2017-Sep-09 18:29N 52°24' E 004°46'0 0.0
2017-Sep-09 17:59N 52°24' E 004°46'0 0.0
2017-Sep-09 17:29N 52°24' E 004°46'0 0.0
2017-Sep-09 16:56N 52°24' E 004°46'0 0.0
2017-Sep-09 16:29N 52°24' E 004°46'0 0.0
2017-Sep-09 15:56N 52°24' E 004°46'0 0.0
2017-Sep-09 15:29N 52°24' E 004°46'0 0.0
2017-Sep-09 14:59N 52°24' E 004°46'0 0.0
2017-Sep-09 14:29N 52°24' E 004°46'0 0.0
2017-Sep-09 13:56N 52°24' E 004°46'0 0.0
2017-Sep-09 13:29N 52°24' E 004°46'0 0.0
2017-Sep-09 12:56N 52°24' E 004°46'0 0.0
2017-Sep-09 12:29N 52°24' E 004°46'0 0.0
2017-Sep-09 11:59N 52°24' E 004°46'0 0.0
2017-Sep-09 11:29N 52°24' E 004°46'0 0.0
2017-Sep-09 10:59N 52°24' E 004°46'0 0.0
2017-Sep-09 10:29N 52°24' E 004°46'0 0.0
2017-Sep-09 09:59N 52°24' E 004°46'0 0.0
2017-Sep-09 09:29N 52°24' E 004°46'0 0.0
2017-Sep-09 08:59N 52°24' E 004°46'0 0.0
2017-Sep-09 08:29N 52°24' E 004°46'0 0.0
2017-Sep-09 07:59N 52°24' E 004°46'0 0.0
2017-Sep-09 07:29N 52°24' E 004°46'0 0.0
2017-Sep-09 06:59N 52°24' E 004°46'0 0.0
2017-Sep-09 06:29N 52°24' E 004°46'0 0.0
2017-Sep-09 05:59N 52°24' E 004°46'0 0.0
2017-Sep-09 05:29N 52°24' E 004°46'0 0.0
2017-Sep-09 04:59N 52°24' E 004°46'0 0.0
2017-Sep-09 04:29N 52°24' E 004°46'0 0.0
2017-Sep-09 03:59N 52°24' E 004°46'0 0.0
2017-Sep-09 03:29N 52°24' E 004°46'0 0.0
2017-Sep-09 02:59N 52°24' E 004°46'0 0.0
2017-Sep-09 02:29N 52°24' E 004°46'0 0.0
2017-Sep-09 01:59N 52°24' E 004°46'0 0.0
2017-Sep-09 01:29N 52°24' E 004°46'0 0.0
2017-Sep-09 00:59N 52°24' E 004°46'0 0.0
2017-Sep-09 00:26N 52°24' E 004°46'0 0.0
2017-Sep-08 23:59N 52°24' E 004°46'0 0.0
2017-Sep-08 23:29N 52°24' E 004°46'0 0.0
2017-Sep-08 22:59N 52°24' E 004°46'0 0.0
2017-Sep-08 22:29N 52°24' E 004°46'0 0.0
2017-Sep-08 21:59N 52°24' E 004°46'0 0.0
2017-Sep-08 21:23N 52°24' E 004°46'0 0.0
2017-Sep-08 20:56N 52°24' E 004°46'0 0.0
2017-Sep-08 20:29N 52°24' E 004°46'0 0.0
2017-Sep-08 19:59N 52°24' E 004°46'0 0.0
2017-Sep-08 19:29N 52°24' E 004°46'0 0.0
2017-Sep-08 18:59N 52°24' E 004°46'0 0.0
2017-Sep-08 18:29N 52°24' E 004°46'0 0.0
2017-Sep-08 17:59N 52°24' E 004°46'0 0.0
2017-Sep-08 17:29N 52°24' E 004°46'0 0.0
2017-Sep-08 16:50N 52°24' E 004°46'0 0.0
2017-Sep-08 16:29N 52°24' E 004°46'0 0.0
2017-Sep-08 15:59N 52°24' E 004°46'0 0.0
2017-Sep-08 15:29N 52°24' E 004°46'0 0.0
2017-Sep-08 14:59N 52°24' E 004°46'0 0.0
2017-Sep-08 14:29N 52°24' E 004°46'0 0.0
2017-Sep-08 13:59N 52°24' E 004°46'0 0.0
2017-Sep-08 13:29N 52°24' E 004°46'0 0.0
2017-Sep-08 12:59N 52°24' E 004°46'0 0.0
2017-Sep-08 12:29N 52°24' E 004°46'0 0.0
2017-Sep-08 11:59N 52°24' E 004°46'0 0.0
2017-Sep-08 11:26N 52°24' E 004°46'0 0.0
2017-Sep-08 10:59N 52°24' E 004°46'0 0.0
2017-Sep-08 10:29N 52°24' E 004°46'0 0.0
2017-Sep-08 09:59N 52°24' E 004°46'0 0.0
2017-Sep-08 09:29N 52°24' E 004°46'0 0.0
2017-Sep-08 08:59N 52°24' E 004°46'0 0.0
2017-Sep-08 08:29N 52°24' E 004°46'0 0.0
2017-Sep-08 07:59N 52°24' E 004°46'0 0.0
2017-Sep-08 07:29N 52°24' E 004°46'0 0.0
2017-Sep-08 06:56N 52°24' E 004°46'0 0.0
2017-Sep-08 06:29N 52°24' E 004°46'0 0.0
2017-Sep-08 05:59N 52°24' E 004°46'0 0.0
2017-Sep-08 05:29N 52°24' E 004°46'0 0.0
2017-Sep-08 04:59N 52°24' E 004°46'0 0.0
2017-Sep-08 04:29N 52°24' E 004°46'0 0.0
2017-Sep-08 03:59N 52°24' E 004°46'0 0.0
2017-Sep-08 03:29N 52°24' E 004°46'0 0.0
2017-Sep-08 02:59N 52°24' E 004°46'0 0.0
2017-Sep-08 02:26N 52°24' E 004°46'0 0.0
2017-Sep-08 01:59N 52°24' E 004°46'0 0.0
2017-Sep-08 01:29N 52°24' E 004°46'0 0.0
2017-Sep-08 00:59N 52°24' E 004°46'0 0.0
2017-Sep-08 00:29N 52°24' E 004°46'0 0.0
2017-Sep-07 23:59N 52°24' E 004°46'0 0.0
2017-Sep-07 23:29N 52°24' E 004°46'0 0.0
2017-Sep-07 22:59N 52°24' E 004°46'0 0.0
2017-Sep-07 22:29N 52°24' E 004°46'0 0.0
2017-Sep-07 21:59N 52°24' E 004°46'0 0.0
2017-Sep-07 21:26N 52°24' E 004°46'0 0.0
2017-Sep-07 20:59N 52°24' E 004°46'0 0.0
2017-Sep-07 20:26N 52°24' E 004°46'0 0.0
2017-Sep-07 19:59N 52°24' E 004°46'0 0.0
2017-Sep-07 19:29N 52°24' E 004°46'0 0.0
2017-Sep-07 18:59N 52°24' E 004°46'0 0.0
2017-Sep-07 18:29N 52°24' E 004°46'0 0.0
2017-Sep-07 17:59N 52°24' E 004°46'0 0.0
2017-Sep-07 17:29N 52°24' E 004°46'0 0.0
2017-Sep-07 16:59N 52°24' E 004°46'0 0.0
2017-Sep-07 16:29N 52°24' E 004°46'0 0.0
2017-Sep-07 15:59N 52°24' E 004°46'0 0.0
2017-Sep-07 15:29N 52°24' E 004°46'0 0.3
2017-Sep-07 15:00N 52°24' E 004°46'2 3.5
2017-Sep-07 14:31N 52°26' E 004°45'4 8.1
2017-Sep-07 14:00N 52°28' E 004°39'1 2.9
2017-Sep-07 13:31N 52°28' E 004°36'2 3.8
2017-Sep-07 13:01N 52°28' E 004°33'5 9.4
2017-Sep-07 12:30N 52°29' E 004°26'3 5.4
2017-Sep-07 12:00N 52°28' E 004°21'2 3.0
2017-Sep-07 11:30N 52°28' E 004°19'5 9.9
2017-Sep-07 11:00N 52°29' E 004°11'5 9.3
2017-Sep-07 10:30N 52°28' E 004°03'1 1.8
2017-Sep-07 09:57N 52°27' E 004°03'0 0.0
2017-Sep-07 09:09N 52°27' E 004°03'0 0.1
2017-Sep-07 08:54N 52°27' E 004°03'0 0.1
2017-Sep-07 08:09N 52°27' E 004°03'0 0.1
2017-Sep-07 07:51N 52°27' E 004°03'0 0.1
2017-Sep-07 06:48N 52°27' E 004°03'0 0.0
2017-Sep-07 06:18N 52°27' E 004°03'0 0.1
2017-Sep-07 05:54N 52°27' E 004°03'0 0.0
2017-Sep-07 05:30N 52°27' E 004°03'0 0.0
2017-Sep-07 04:54N 52°27' E 004°03'0 0.0
2017-Sep-07 04:30N 52°27' E 004°03'0 0.0
2017-Sep-07 04:00N 52°27' E 004°03'0 0.1
2017-Sep-07 03:27N 52°27' E 004°03'0 0.0
2017-Sep-07 03:00N 52°27' E 004°03'0 0.0
2017-Sep-07 02:30N 52°27' E 004°03'0 0.1
2017-Sep-07 01:54N 52°27' E 004°03'0 0.2
2017-Sep-07 01:27N 52°27' E 004°03'0 0.1
2017-Sep-07 00:57N 52°27' E 004°03'0 0.0
2017-Sep-07 00:30N 52°27' E 004°03'0 0.1
2017-Sep-06 23:57N 52°27' E 004°03'0 0.1
2017-Sep-06 23:27N 52°27' E 004°03'0 0.0
2017-Sep-06 23:00N 52°27' E 004°03'0 0.1
2017-Sep-06 22:27N 52°27' E 004°03'0 0.1
2017-Sep-06 22:00N 52°27' E 004°03'0 0.0
2017-Sep-06 21:30N 52°27' E 004°03'0 0.0
2017-Sep-06 20:57N 52°27' E 004°03'0 0.0
2017-Sep-06 20:30N 52°27' E 004°03'0 0.0
2017-Sep-06 19:45N 52°27' E 004°03'0 0.0
2017-Sep-06 19:30N 52°27' E 004°03'0 0.0
2017-Sep-06 18:57N 52°27' E 004°03'0 0.1
2017-Sep-06 18:27N 52°27' E 004°03'0 0.0
2017-Sep-06 18:00N 52°27' E 004°03'0 0.1
2017-Sep-06 17:27N 52°27' E 004°03'0 0.1
2017-Sep-06 17:00N 52°27' E 004°03'1 2.0
2017-Sep-06 16:30N 52°27' E 004°02'5 9.1
2017-Sep-06 16:01N 52°27' E 003°55'714.0
2017-Sep-06 15:30N 52°26' E 003°43'6415.4
2017-Sep-06 11:21N 51°41' E 002°28'514.8
2017-Sep-06 11:00N 51°37' E 002°23'714.4
2017-Sep-06 10:30N 51°32' E 002°15'714.0
2017-Sep-06 10:00N 51°27' E 002°08'713.5
2017-Sep-06 09:30N 51°22' E 002°00'613.0
2017-Sep-06 09:00N 51°16' E 001°54'612.3
2017-Sep-06 08:30N 51°12' E 001°47'611.4
2017-Sep-06 08:00N 51°08' E 001°42'611.0
2017-Sep-06 07:30N 51°03' E 001°36'611.4
2017-Sep-06 07:00N 50°59' E 001°30'611.1
2017-Sep-06 06:30N 50°54' E 001°25'611.6
2017-Sep-06 06:00N 50°48' E 001°24'611.6
2017-Sep-06 05:29N 50°43' E 001°22'612.2
2017-Sep-06 05:00N 50°39' E 001°15'712.4
2017-Sep-06 04:28N 50°34' E 001°07'612.5
2017-Sep-06 04:00N 50°30' E 001°01'812.5
2017-Sep-06 03:22N 50°27' E 000°50'512.7
2017-Sep-06 02:57N 50°26' E 000°42'612.7
2017-Sep-06 02:26N 50°24' E 000°32'512.7
2017-Sep-06 02:00N 50°23' E 000°23'612.6
2017-Sep-06 01:30N 50°21' E 000°14'612.7
2017-Sep-06 01:00N 50°19' E 000°04'713.0
2017-Sep-06 00:30N 50°18' W 000°06'713.1
2017-Sep-06 00:00N 50°16' W 000°15'3514.3
2017-Sep-05 21:33N 50°07' W 001°08'116.0
2017-Sep-05 21:30N 50°06' W 001°09'816.3
2017-Sep-05 21:00N 50°04' W 001°21'816.8
2017-Sep-05 20:31N 50°02' W 001°34'917.2
2017-Sep-05 20:01N 49°60' W 001°47'917.6
2017-Sep-05 19:31N 49°58' W 002°00'917.4
2017-Sep-05 19:00N 49°56' W 002°14'1217.2
2017-Sep-05 18:19N 49°53' W 002°31'516.7
2017-Sep-05 18:00N 49°51' W 002°39'816.4
2017-Sep-05 17:30N 49°49' W 002°51'816.1
2017-Sep-05 17:00N 49°48' W 003°04'816.0
2017-Sep-05 16:30N 49°47' W 003°16'815.8
2017-Sep-05 16:00N 49°46' W 003°28'815.5
2017-Sep-05 15:30N 49°46' W 003°40'815.4
2017-Sep-05 15:00N 49°45' W 003°52'714.9
2017-Sep-05 14:30N 49°43' W 004°03'814.9
2017-Sep-05 13:58N 49°43' W 004°16'814.8
2017-Sep-05 13:27N 49°42' W 004°27'714.7
2017-Sep-05 12:58N 49°41' W 004°38'714.4
2017-Sep-05 12:29N 49°40' W 004°49'4812.8
2017-Sep-05 08:43N 49°54' W 006°00'1313.5
2017-Sep-05 07:44N 50°08' W 006°01'313.7
2017-Sep-05 07:29N 50°11' W 006°01'613.1
2017-Sep-05 07:00N 50°17' W 006°01'612.8
2017-Sep-05 06:30N 50°24' W 006°01'612.6
2017-Sep-05 06:00N 50°30' W 006°01'612.3
2017-Sep-05 05:30N 50°36' W 006°01'612.2
2017-Sep-05 05:00N 50°42' W 006°01'611.8
2017-Sep-05 04:30N 50°48' W 006°01'611.9
2017-Sep-05 04:00N 50°54' W 006°00'711.7
2017-Sep-05 03:25N 51°01' W 005°60'611.9
2017-Sep-05 02:54N 51°07' W 005°60'1312.0
2017-Sep-05 01:51N 51°20' W 005°60'412.4
2017-Sep-05 01:30N 51°24' W 005°60'3012.8
2017-Sep-04 23:11N 51°54' W 005°53'213.2
2017-Sep-04 23:00N 51°56' W 005°52'713.1
2017-Sep-04 22:30N 52°02' W 005°48'612.7
2017-Sep-04 22:00N 52°08' W 005°44'611.9
2017-Sep-04 21:30N 52°13' W 005°40'611.7
2017-Sep-04 21:00N 52°19' W 005°37'611.0
2017-Sep-04 20:30N 52°24' W 005°34'610.9
2017-Sep-04 19:57N 52°30' W 005°30'510.7
2017-Sep-04 19:30N 52°34' W 005°27'610.4
2017-Sep-04 18:57N 52°39' W 005°24'8011.2
2017-Sep-04 11:47N 53°34' W 003°46'413.8
2017-Sep-04 11:29N 53°34' W 003°39'613.8
2017-Sep-04 11:01N 53°33' W 003°28'612.4
2017-Sep-04 10:30N 53°31' W 003°18'510.6
2017-Sep-04 10:00N 53°32' W 003°09'612.3
2017-Sep-04 09:30N 53°27' W 003°02'4 9.0
2017-Sep-04 09:00N 53°23' W 002°60'0 0.5
2017-Sep-04 08:30N 53°23' W 002°60'0 0.0
2017-Sep-04 08:00N 53°23' W 002°60'0 0.0
2017-Sep-04 07:12N 53°23' W 002°60'0 0.0
2017-Sep-04 07:00N 53°23' W 002°60'0 0.0
2017-Sep-04 06:30N 53°23' W 002°60'0 0.0
2017-Sep-04 06:00N 53°23' W 002°60'0 0.0
2017-Sep-04 05:30N 53°23' W 002°60'0 0.0
2017-Sep-04 05:00N 53°23' W 002°60'0 0.0
2017-Sep-04 04:24N 53°23' W 002°60'0 0.0
2017-Sep-04 03:57N 53°23' W 002°60'0 0.0
2017-Sep-04 03:30N 53°23' W 002°60'0 0.0
2017-Sep-04 03:00N 53°23' W 002°60'0 0.0
2017-Sep-04 02:30N 53°23' W 002°60'0 0.0
2017-Sep-04 02:00N 53°23' W 002°60'0 0.0
2017-Sep-04 01:30N 53°23' W 002°60'0 0.0
2017-Sep-04 01:00N 53°23' W 002°60'0 0.0
2017-Sep-04 00:30N 53°23' W 002°60'0 0.0
2017-Sep-04 00:00N 53°23' W 002°60'0 0.0
2017-Sep-03 23:30N 53°23' W 002°60'0 0.0
2017-Sep-03 23:00N 53°23' W 002°60'0 0.0
2017-Sep-03 22:30N 53°23' W 002°60'0 0.0
2017-Sep-03 22:00N 53°23' W 002°60'0 0.0
2017-Sep-03 21:27N 53°23' W 002°60'0 0.0
2017-Sep-03 21:00N 53°23' W 002°60'0 0.0
2017-Sep-03 20:30N 53°23' W 002°60'0 0.0
2017-Sep-03 20:00N 53°23' W 002°60'0 0.0
2017-Sep-03 19:24N 53°23' W 002°60'0 0.0
2017-Sep-03 19:00N 53°23' W 002°60'0 0.0
2017-Sep-03 18:24N 53°23' W 002°60'0 0.0
2017-Sep-03 17:54N 53°23' W 002°60'0 0.0
2017-Sep-03 17:27N 53°23' W 002°60'0 0.0
2017-Sep-03 17:00N 53°23' W 002°60'0 0.0
2017-Sep-03 16:30N 53°23' W 002°60'0 0.0
2017-Sep-03 16:00N 53°23' W 002°60'0 0.0
2017-Sep-03 15:30N 53°23' W 002°60'0 0.0
2017-Sep-03 15:00N 53°23' W 002°60'0 0.0
2017-Sep-03 13:54N 53°23' W 002°60'0 0.0
2017-Sep-03 13:27N 53°23' W 002°60'0 0.0
2017-Sep-03 12:57N 53°23' W 002°60'0 0.0
2017-Sep-03 12:30N 53°23' W 002°60'0 0.0
2017-Sep-03 12:00N 53°23' W 002°60'0 0.0
2017-Sep-03 11:30N 53°23' W 002°60'0 0.0
2017-Sep-03 10:57N 53°23' W 002°60'0 0.0
2017-Sep-03 10:30N 53°23' W 002°60'0 0.0
2017-Sep-03 10:00N 53°23' W 002°60'0 0.0
2017-Sep-03 09:30N 53°23' W 002°60'0 0.0
2017-Sep-03 09:00N 53°23' W 002°60'0 0.0
2017-Sep-03 08:30N 53°23' W 002°60'0 0.0
2017-Sep-03 08:00N 53°23' W 002°60'0 0.0
2017-Sep-03 07:30N 53°23' W 002°60'0 0.0
2017-Sep-03 07:00N 53°23' W 002°60'0 0.0
2017-Sep-03 06:30N 53°23' W 002°60'0 0.0
2017-Sep-03 06:00N 53°23' W 002°60'0 0.0
2017-Sep-03 05:27N 53°23' W 002°60'0 0.0
2017-Sep-03 05:00N 53°23' W 002°60'0 0.0
2017-Sep-03 04:30N 53°23' W 002°60'0 0.0
2017-Sep-03 03:54N 53°23' W 002°60'0 0.0
2017-Sep-03 03:30N 53°23' W 002°60'0 0.0
2017-Sep-03 02:48N 53°23' W 002°60'0 0.0
2017-Sep-03 02:30N 53°23' W 002°60'0 0.0
2017-Sep-03 02:00N 53°23' W 002°60'0 0.0
2017-Sep-03 01:30N 53°23' W 002°60'0 0.0
2017-Sep-03 01:00N 53°23' W 002°60'0 0.0
2017-Sep-03 00:30N 53°23' W 002°60'0 0.0
2017-Sep-03 00:00N 53°23' W 002°60'0 0.0
2017-Sep-02 23:30N 53°23' W 002°60'0 0.0
2017-Sep-02 23:00N 53°23' W 002°60'0 0.0
2017-Sep-02 22:27N 53°23' W 002°60'0 0.0
2017-Sep-02 22:00N 53°23' W 002°60'0 0.0
2017-Sep-02 21:30N 53°23' W 002°60'0 0.4
2017-Sep-02 21:00N 53°23' W 002°60'2 3.7
2017-Sep-02 20:30N 53°25' W 003°01'4 8.6
2017-Sep-02 20:00N 53°28' W 003°04'4 8.8
2017-Sep-02 19:30N 53°32' W 003°09'5 9.3
2017-Sep-02 19:00N 53°31' W 003°17'5 9.1
2017-Sep-02 18:30N 53°31' W 003°24'0 1.0
2017-Sep-02 18:00N 53°31' W 003°23'3 5.2
2017-Sep-02 17:30N 53°31' W 003°28'3 6.0
2017-Sep-02 17:00N 53°31' W 003°33'3 6.8
2017-Sep-02 16:30N 53°31' W 003°39'4 7.3
2017-Sep-02 16:00N 53°32' W 003°44'612.5
2017-Sep-02 15:30N 53°35' W 003°53'612.4
2017-Sep-02 15:00N 53°38' W 004°02'4712.8
2017-Sep-02 11:21N 54°08' W 005°04'513.4
2017-Sep-02 11:00N 54°12' W 005°05'713.6
2017-Sep-02 10:30N 54°19' W 005°07'713.6
2017-Sep-02 10:00N 54°26' W 005°10'713.4
2017-Sep-02 09:30N 54°32' W 005°12'713.6
2017-Sep-02 09:00N 54°39' W 005°15'713.9
2017-Sep-02 08:31N 54°45' W 005°21'714.3
2017-Sep-02 08:01N 54°50' W 005°28'714.5
2017-Sep-02 07:31N 54°56' W 005°35'814.9
2017-Sep-02 06:59N 55°03' W 005°43'715.2
2017-Sep-02 06:30N 55°09' W 005°51'815.9
2017-Sep-02 06:00N 55°15' W 005°59'815.5
2017-Sep-02 05:30N 55°21' W 006°07'815.3
2017-Sep-02 05:00N 55°23' W 006°20'714.9
2017-Sep-02 04:30N 55°24' W 006°33'714.7
2017-Sep-02 04:00N 55°26' W 006°46'714.7
2017-Sep-02 03:30N 55°28' W 006°59'714.5
2017-Sep-02 03:00N 55°30' W 007°11'814.3
2017-Sep-02 02:26N 55°30' W 007°25'614.3
2017-Sep-02 01:59N 55°29' W 007°36'914.2
2017-Sep-02 01:23N 55°28' W 007°52'1414.1
2017-Sep-02 00:25N 55°27' W 008°15'1514.3
2017-Sep-01 23:23N 55°24' W 008°41'814.3
2017-Sep-01 22:51N 55°22' W 008°54'514.1
2017-Sep-01 22:29N 55°20' W 009°03'  
Track history (hours):
 
Tides and Currents Weather Stations Pressure Air Temp Water Temp Dewpoint Dewpoint Depression Visibility Wind Speed Wind Dir Waves Ship Positions

Nord Imagination

Last reported at 2017-Sep-11 21:22 UTC. Time now 2017-Sep-22 12:00 UTC.
Position N 49°45' W 003°54'.
Warning: this ship's position is 10 days out of date.

Length 179 m; draft 11.5 m.

Type: Ship (hazmat cat D). MMSI: 354828000.

Date/timePositionNaut miles runAvg speedWind from/ knotsBaromVisibWave heightAir tempDewpointWater temp
2017-Sep-11 21:22N 49°45' W 003°54'3 8.9
2017-Sep-11 21:01N 49°46' W 003°49'4 8.9
2017-Sep-11 20:31N 49°48' W 003°43'5 9.1
2017-Sep-11 20:00N 49°50' W 003°36'5 9.4
2017-Sep-11 19:31N 49°51' W 003°30'5 9.9
2017-Sep-11 19:01N 49°53' W 003°22'510.3
2017-Sep-11 18:31N 49°54' W 003°15'510.9
2017-Sep-11 18:00N 49°56' W 003°07'611.5
2017-Sep-11 17:30N 49°58' W 002°58'612.1
2017-Sep-11 17:00N 49°60' W 002°49'612.5
2017-Sep-11 16:31N 50°02' W 002°40'2112.1
2017-Sep-11 14:49N 50°07' W 002°09'310.6
2017-Sep-11 14:30N 50°08' W 002°04'5 9.7
2017-Sep-11 14:00N 50°09' W 001°57'4 8.3
2017-Sep-11 13:30N 50°09' W 001°50'4 7.4
2017-Sep-11 13:01N 50°10' W 001°45'3 6.1
2017-Sep-11 12:30N 50°11' W 001°40'3 5.5
2017-Sep-11 12:00N 50°11' W 001°36'2 4.6
2017-Sep-11 11:30N 50°11' W 001°32'2 4.1
2017-Sep-11 11:00N 50°12' W 001°29'2 4.5
2017-Sep-11 10:30N 50°12' W 001°26'2 4.3
2017-Sep-11 10:00N 50°13' W 001°22'2 4.7
2017-Sep-11 09:30N 50°14' W 001°19'3 5.3
2017-Sep-11 09:00N 50°15' W 001°16'3 6.8
2017-Sep-11 08:30N 50°17' W 001°11'4 7.9
2017-Sep-11 08:01N 50°18' W 001°05'3111.5
2017-Sep-11 05:20N 50°27' W 000°19'411.9
2017-Sep-11 05:00N 50°28' W 000°13'611.3
2017-Sep-11 04:30N 50°30' W 000°04'611.1
2017-Sep-11 04:00N 50°31' E 000°04'510.7
2017-Sep-11 03:30N 50°32' E 000°12'510.3
2017-Sep-11 03:00N 50°34' E 000°20'510.0
2017-Sep-11 02:31N 50°35' E 000°27'5 9.7
2017-Sep-11 02:01N 50°36' E 000°35'5 9.3
2017-Sep-11 01:31N 50°39' E 000°41'5 9.2
2017-Sep-11 01:00N 50°42' E 000°47'5 9.2
2017-Sep-11 00:30N 50°44' E 000°53'5 9.1
2017-Sep-11 00:00N 50°47' E 000°58'5 9.2
2017-Sep-10 23:30N 50°50' E 001°04'5 9.9
2017-Sep-10 23:00N 50°53' E 001°10'610.9
2017-Sep-10 22:26N 50°58' E 001°15'511.6
2017-Sep-10 22:00N 51°02' E 001°21'612.1
2017-Sep-10 21:31N 51°05' E 001°29'611.9
2017-Sep-10 21:01N 51°09' E 001°36'611.2
2017-Sep-10 20:30N 51°12' E 001°43'510.3
2017-Sep-10 20:01N 51°16' E 001°49'510.1
2017-Sep-10 19:31N 51°21' E 001°51'5 9.4
2017-Sep-10 19:00N 51°26' E 001°53'5 9.5
2017-Sep-10 18:31N 51°28' E 001°59'5 9.6
2017-Sep-10 18:01N 51°32' E 002°05'5 9.4
2017-Sep-10 17:31N 51°35' E 002°10'5 9.3
2017-Sep-10 17:00N 51°39' E 002°15'5 9.3
2017-Sep-10 16:31N 51°42' E 002°20'7611.6
2017-Sep-10 09:58N 52°32' E 003°53'612.4
2017-Sep-10 09:28N 52°31' E 004°04'612.6
2017-Sep-10 09:01N 52°31' E 004°13'510.8
2017-Sep-10 08:30N 52°30' E 004°22'4 7.9
2017-Sep-10 08:01N 52°29' E 004°28'4 8.4
2017-Sep-10 07:30N 52°28' E 004°35'1 2.3
2017-Sep-10 07:00N 52°28' E 004°37'1 1.3
2017-Sep-10 06:31N 52°28' E 004°38'3 5.4
2017-Sep-10 06:01N 52°27' E 004°42'3 6.3
2017-Sep-10 05:31N 52°25' E 004°46'1 2.1
2017-Sep-10 05:00N 52°24' E 004°46'0 0.0
2017-Sep-10 04:29N 52°24' E 004°46'0 0.0
2017-Sep-10 03:59N 52°24' E 004°46'0 0.0
2017-Sep-10 03:29N 52°24' E 004°46'0 0.0
2017-Sep-10 02:59N 52°24' E 004°46'0 0.0
2017-Sep-10 02:29N 52°24' E 004°46'0 0.0
2017-Sep-10 01:59N 52°24' E 004°46'0 0.0
2017-Sep-10 01:29N 52°24' E 004°46'0 0.0
2017-Sep-10 00:59N 52°24' E 004°46'0 0.0
2017-Sep-10 00:29N 52°24' E 004°46'0 0.0
2017-Sep-09 23:50N 52°24' E 004°46'0 0.0
2017-Sep-09 23:29N 52°24' E 004°46'0 0.0
2017-Sep-09 22:59N 52°24' E 004°46'0 0.0
2017-Sep-09 22:29N 52°24' E 004°46'0 0.0
2017-Sep-09 21:56N 52°24' E 004°46'0 0.0
2017-Sep-09 21:29N 52°24' E 004°46'0 0.0
2017-Sep-09 20:59N 52°24' E 004°46'0 0.0
2017-Sep-09 20:29N 52°24' E 004°46'0 0.0
2017-Sep-09 19:59N 52°24' E 004°46'0 0.0
2017-Sep-09 19:29N 52°24' E 004°46'0 0.0
2017-Sep-09 18:59N 52°24' E 004°46'0 0.0
2017-Sep-09 18:29N 52°24' E 004°46'0 0.0
2017-Sep-09 17:59N 52°24' E 004°46'0 0.0
2017-Sep-09 17:29N 52°24' E 004°46'0 0.0
2017-Sep-09 16:56N 52°24' E 004°46'0 0.0
2017-Sep-09 16:29N 52°24' E 004°46'0 0.0
2017-Sep-09 15:56N 52°24' E 004°46'0 0.0
2017-Sep-09 15:29N 52°24' E 004°46'0 0.0
2017-Sep-09 14:59N 52°24' E 004°46'0 0.0
2017-Sep-09 14:29N 52°24' E 004°46'0 0.0
2017-Sep-09 13:56N 52°24' E 004°46'0 0.0
2017-Sep-09 13:29N 52°24' E 004°46'0 0.0
2017-Sep-09 12:56N 52°24' E 004°46'0 0.0
2017-Sep-09 12:29N 52°24' E 004°46'0 0.0
2017-Sep-09 11:59N 52°24' E 004°46'0 0.0
2017-Sep-09 11:29N 52°24' E 004°46'0 0.0
2017-Sep-09 10:59N 52°24' E 004°46'0 0.0
2017-Sep-09 10:29N 52°24' E 004°46'0 0.0
2017-Sep-09 09:59N 52°24' E 004°46'0 0.0
2017-Sep-09 09:29N 52°24' E 004°46'0 0.0
2017-Sep-09 08:59N 52°24' E 004°46'0 0.0
2017-Sep-09 08:29N 52°24' E 004°46'0 0.0
2017-Sep-09 07:59N 52°24' E 004°46'0 0.0
2017-Sep-09 07:29N 52°24' E 004°46'0 0.0
2017-Sep-09 06:59N 52°24' E 004°46'0 0.0
2017-Sep-09 06:29N 52°24' E 004°46'0 0.0
2017-Sep-09 05:59N 52°24' E 004°46'0 0.0
2017-Sep-09 05:29N 52°24' E 004°46'0 0.0
2017-Sep-09 04:59N 52°24' E 004°46'0 0.0
2017-Sep-09 04:29N 52°24' E 004°46'0 0.0
2017-Sep-09 03:59N 52°24' E 004°46'0 0.0
2017-Sep-09 03:29N 52°24' E 004°46'0 0.0
2017-Sep-09 02:59N 52°24' E 004°46'0 0.0
2017-Sep-09 02:29N 52°24' E 004°46'0 0.0
2017-Sep-09 01:59N 52°24' E 004°46'0 0.0
2017-Sep-09 01:29N 52°24' E 004°46'0 0.0
2017-Sep-09 00:59N 52°24' E 004°46'0 0.0
2017-Sep-09 00:26N 52°24' E 004°46'0 0.0
2017-Sep-08 23:59N 52°24' E 004°46'0 0.0
2017-Sep-08 23:29N 52°24' E 004°46'0 0.0
2017-Sep-08 22:59N 52°24' E 004°46'0 0.0
2017-Sep-08 22:29N 52°24' E 004°46'0 0.0
2017-Sep-08 21:59N 52°24' E 004°46'0 0.0
2017-Sep-08 21:23N 52°24' E 004°46'0 0.0
2017-Sep-08 20:56N 52°24' E 004°46'0 0.0
2017-Sep-08 20:29N 52°24' E 004°46'0 0.0
2017-Sep-08 19:59N 52°24' E 004°46'0 0.0
2017-Sep-08 19:29N 52°24' E 004°46'0 0.0
2017-Sep-08 18:59N 52°24' E 004°46'0 0.0
2017-Sep-08 18:29N 52°24' E 004°46'0 0.0
2017-Sep-08 17:59N 52°24' E 004°46'0 0.0
2017-Sep-08 17:29N 52°24' E 004°46'0 0.0
2017-Sep-08 16:50N 52°24' E 004°46'0 0.0
2017-Sep-08 16:29N 52°24' E 004°46'0 0.0
2017-Sep-08 15:59N 52°24' E 004°46'0 0.0
2017-Sep-08 15:29N 52°24' E 004°46'0 0.0
2017-Sep-08 14:59N 52°24' E 004°46'0 0.0
2017-Sep-08 14:29N 52°24' E 004°46'0 0.0
2017-Sep-08 13:59N 52°24' E 004°46'0 0.0
2017-Sep-08 13:29N 52°24' E 004°46'0 0.0
2017-Sep-08 12:59N 52°24' E 004°46'0 0.0
2017-Sep-08 12:29N 52°24' E 004°46'0 0.0
2017-Sep-08 11:59N 52°24' E 004°46'0 0.0
2017-Sep-08 11:26N 52°24' E 004°46'0 0.0
2017-Sep-08 10:59N 52°24' E 004°46'0 0.0
2017-Sep-08 10:29N 52°24' E 004°46'0 0.0
2017-Sep-08 09:59N 52°24' E 004°46'0 0.0
2017-Sep-08 09:29N 52°24' E 004°46'0 0.0
2017-Sep-08 08:59N 52°24' E 004°46'0 0.0
2017-Sep-08 08:29N 52°24' E 004°46'0 0.0
2017-Sep-08 07:59N 52°24' E 004°46'0 0.0
2017-Sep-08 07:29N 52°24' E 004°46'0 0.0
2017-Sep-08 06:56N 52°24' E 004°46'0 0.0
2017-Sep-08 06:29N 52°24' E 004°46'0 0.0
2017-Sep-08 05:59N 52°24' E 004°46'0 0.0
2017-Sep-08 05:29N 52°24' E 004°46'0 0.0
2017-Sep-08 04:59N 52°24' E 004°46'0 0.0
2017-Sep-08 04:29N 52°24' E 004°46'0 0.0
2017-Sep-08 03:59N 52°24' E 004°46'0 0.0
2017-Sep-08 03:29N 52°24' E 004°46'0 0.0
2017-Sep-08 02:59N 52°24' E 004°46'0 0.0
2017-Sep-08 02:26N 52°24' E 004°46'0 0.0
2017-Sep-08 01:59N 52°24' E 004°46'0 0.0
2017-Sep-08 01:29N 52°24' E 004°46'0 0.0
2017-Sep-08 00:59N 52°24' E 004°46'0 0.0
2017-Sep-08 00:29N 52°24' E 004°46'0 0.0
2017-Sep-07 23:59N 52°24' E 004°46'0 0.0
2017-Sep-07 23:29N 52°24' E 004°46'0 0.0
2017-Sep-07 22:59N 52°24' E 004°46'0 0.0
2017-Sep-07 22:29N 52°24' E 004°46'0 0.0
2017-Sep-07 21:59N 52°24' E 004°46'0 0.0
2017-Sep-07 21:26N 52°24' E 004°46'0 0.0
2017-Sep-07 20:59N 52°24' E 004°46'0 0.0
2017-Sep-07 20:26N 52°24' E 004°46'0 0.0
2017-Sep-07 19:59N 52°24' E 004°46'0 0.0
2017-Sep-07 19:29N 52°24' E 004°46'0 0.0
2017-Sep-07 18:59N 52°24' E 004°46'0 0.0
2017-Sep-07 18:29N 52°24' E 004°46'0 0.0
2017-Sep-07 17:59N 52°24' E 004°46'0 0.0
2017-Sep-07 17:29N 52°24' E 004°46'0 0.0
2017-Sep-07 16:59N 52°24' E 004°46'0 0.0
2017-Sep-07 16:29N 52°24' E 004°46'0 0.0
2017-Sep-07 15:59N 52°24' E 004°46'0 0.0
2017-Sep-07 15:29N 52°24' E 004°46'0 0.3
2017-Sep-07 15:00N 52°24' E 004°46'2 3.5
2017-Sep-07 14:31N 52°26' E 004°45'4 8.1
2017-Sep-07 14:00N 52°28' E 004°39'1 2.9
2017-Sep-07 13:31N 52°28' E 004°36'2 3.8
2017-Sep-07 13:01N 52°28' E 004°33'5 9.4
2017-Sep-07 12:30N 52°29' E 004°26'3 5.4
2017-Sep-07 12:00N 52°28' E 004°21'2 3.0
2017-Sep-07 11:30N 52°28' E 004°19'5 9.9
2017-Sep-07 11:00N 52°29' E 004°11'5 9.3
2017-Sep-07 10:30N 52°28' E 004°03'1 1.8
2017-Sep-07 09:57N 52°27' E 004°03'0 0.0
2017-Sep-07 09:09N 52°27' E 004°03'0 0.1
2017-Sep-07 08:54N 52°27' E 004°03'0 0.1
2017-Sep-07 08:09N 52°27' E 004°03'0 0.1
2017-Sep-07 07:51N 52°27' E 004°03'0 0.1
2017-Sep-07 06:48N 52°27' E 004°03'0 0.0
2017-Sep-07 06:18N 52°27' E 004°03'0 0.1
2017-Sep-07 05:54N 52°27' E 004°03'0 0.0
2017-Sep-07 05:30N 52°27' E 004°03'0 0.0
2017-Sep-07 04:54N 52°27' E 004°03'0 0.0
2017-Sep-07 04:30N 52°27' E 004°03'0 0.0
2017-Sep-07 04:00N 52°27' E 004°03'0 0.1
2017-Sep-07 03:27N 52°27' E 004°03'0 0.0
2017-Sep-07 03:00N 52°27' E 004°03'0 0.0
2017-Sep-07 02:30N 52°27' E 004°03'0 0.1
2017-Sep-07 01:54N 52°27' E 004°03'0 0.2
2017-Sep-07 01:27N 52°27' E 004°03'0 0.1
2017-Sep-07 00:57N 52°27' E 004°03'0 0.0
2017-Sep-07 00:30N 52°27' E 004°03'0 0.1
2017-Sep-06 23:57N 52°27' E 004°03'0 0.1
2017-Sep-06 23:27N 52°27' E 004°03'0 0.0
2017-Sep-06 23:00N 52°27' E 004°03'0 0.1
2017-Sep-06 22:27N 52°27' E 004°03'0 0.1
2017-Sep-06 22:00N 52°27' E 004°03'0 0.0
2017-Sep-06 21:30N 52°27' E 004°03'0 0.0
2017-Sep-06 20:57N 52°27' E 004°03'0 0.0
2017-Sep-06 20:30N 52°27' E 004°03'0 0.0
2017-Sep-06 19:45N 52°27' E 004°03'0 0.0
2017-Sep-06 19:30N 52°27' E 004°03'0 0.0
2017-Sep-06 18:57N 52°27' E 004°03'0 0.1
2017-Sep-06 18:27N 52°27' E 004°03'0 0.0
2017-Sep-06 18:00N 52°27' E 004°03'0 0.1
2017-Sep-06 17:27N 52°27' E 004°03'0 0.1
2017-Sep-06 17:00N 52°27' E 004°03'1 2.0
2017-Sep-06 16:30N 52°27' E 004°02'5 9.1
2017-Sep-06 16:01N 52°27' E 003°55'714.0
2017-Sep-06 15:30N 52°26' E 003°43'6415.4
2017-Sep-06 11:21N 51°41' E 002°28'514.8
2017-Sep-06 11:00N 51°37' E 002°23'714.4
2017-Sep-06 10:30N 51°32' E 002°15'714.0
2017-Sep-06 10:00N 51°27' E 002°08'713.5
2017-Sep-06 09:30N 51°22' E 002°00'613.0
2017-Sep-06 09:00N 51°16' E 001°54'612.3
2017-Sep-06 08:30N 51°12' E 001°47'611.4
2017-Sep-06 08:00N 51°08' E 001°42'611.0
2017-Sep-06 07:30N 51°03' E 001°36'611.4
2017-Sep-06 07:00N 50°59' E 001°30'611.1
2017-Sep-06 06:30N 50°54' E 001°25'611.6
2017-Sep-06 06:00N 50°48' E 001°24'611.6
2017-Sep-06 05:29N 50°43' E 001°22'612.2
2017-Sep-06 05:00N 50°39' E 001°15'712.4
2017-Sep-06 04:28N 50°34' E 001°07'612.5
2017-Sep-06 04:00N 50°30' E 001°01'812.5
2017-Sep-06 03:22N 50°27' E 000°50'512.7
2017-Sep-06 02:57N 50°26' E 000°42'612.7
2017-Sep-06 02:26N 50°24' E 000°32'512.7
2017-Sep-06 02:00N 50°23' E 000°23'612.6
2017-Sep-06 01:30N 50°21' E 000°14'612.7
2017-Sep-06 01:00N 50°19' E 000°04'713.0
2017-Sep-06 00:30N 50°18' W 000°06'713.1
2017-Sep-06 00:00N 50°16' W 000°15'3514.3
2017-Sep-05 21:33N 50°07' W 001°08'116.0
2017-Sep-05 21:30N 50°06' W 001°09'816.3
2017-Sep-05 21:00N 50°04' W 001°21'816.8
2017-Sep-05 20:31N 50°02' W 001°34'917.2
2017-Sep-05 20:01N 49°60' W 001°47'917.6
2017-Sep-05 19:31N 49°58' W 002°00'917.4
2017-Sep-05 19:00N 49°56' W 002°14'1217.2
2017-Sep-05 18:19N 49°53' W 002°31'516.7
2017-Sep-05 18:00N 49°51' W 002°39'816.4
2017-Sep-05 17:30N 49°49' W 002°51'816.1
2017-Sep-05 17:00N 49°48' W 003°04'816.0
2017-Sep-05 16:30N 49°47' W 003°16'815.8
2017-Sep-05 16:00N 49°46' W 003°28'815.5
2017-Sep-05 15:30N 49°46' W 003°40'815.4
2017-Sep-05 15:00N 49°45' W 003°52'714.9
2017-Sep-05 14:30N 49°43' W 004°03'814.9
2017-Sep-05 13:58N 49°43' W 004°16'814.8
2017-Sep-05 13:27N 49°42' W 004°27'714.7
2017-Sep-05 12:58N 49°41' W 004°38'714.4
2017-Sep-05 12:29N 49°40' W 004°49'4812.8
2017-Sep-05 08:43N 49°54' W 006°00'1313.5
2017-Sep-05 07:44N 50°08' W 006°01'313.7
2017-Sep-05 07:29N 50°11' W 006°01'613.1
2017-Sep-05 07:00N 50°17' W 006°01'612.8
2017-Sep-05 06:30N 50°24' W 006°01'612.6
2017-Sep-05 06:00N 50°30' W 006°01'612.3
2017-Sep-05 05:30N 50°36' W 006°01'612.2
2017-Sep-05 05:00N 50°42' W 006°01'611.8
2017-Sep-05 04:30N 50°48' W 006°01'611.9
2017-Sep-05 04:00N 50°54' W 006°00'711.7
2017-Sep-05 03:25N 51°01' W 005°60'611.9
2017-Sep-05 02:54N 51°07' W 005°60'1312.0
2017-Sep-05 01:51N 51°20' W 005°60'412.4
2017-Sep-05 01:30N 51°24' W 005°60'3012.8
2017-Sep-04 23:11N 51°54' W 005°53'213.2
2017-Sep-04 23:00N 51°56' W 005°52'713.1
2017-Sep-04 22:30N 52°02' W 005°48'612.7
2017-Sep-04 22:00N 52°08' W 005°44'611.9
2017-Sep-04 21:30N 52°13' W 005°40'611.7
2017-Sep-04 21:00N 52°19' W 005°37'611.0
2017-Sep-04 20:30N 52°24' W 005°34'610.9
2017-Sep-04 19:57N 52°30' W 005°30'510.7
2017-Sep-04 19:30N 52°34' W 005°27'610.4
2017-Sep-04 18:57N 52°39' W 005°24'8011.2
2017-Sep-04 11:47N 53°34' W 003°46'413.8
2017-Sep-04 11:29N 53°34' W 003°39'613.8
2017-Sep-04 11:01N 53°33' W 003°28'612.4
2017-Sep-04 10:30N 53°31' W 003°18'510.6
2017-Sep-04 10:00N 53°32' W 003°09'612.3
2017-Sep-04 09:30N 53°27' W 003°02'4 9.0
2017-Sep-04 09:00N 53°23' W 002°60'0 0.5
2017-Sep-04 08:30N 53°23' W 002°60'0 0.0
2017-Sep-04 08:00N 53°23' W 002°60'0 0.0
2017-Sep-04 07:12N 53°23' W 002°60'0 0.0
2017-Sep-04 07:00N 53°23' W 002°60'0 0.0
2017-Sep-04 06:30N 53°23' W 002°60'0 0.0
2017-Sep-04 06:00N 53°23' W 002°60'0 0.0
2017-Sep-04 05:30N 53°23' W 002°60'0 0.0
2017-Sep-04 05:00N 53°23' W 002°60'0 0.0
2017-Sep-04 04:24N 53°23' W 002°60'0 0.0
2017-Sep-04 03:57N 53°23' W 002°60'0 0.0
2017-Sep-04 03:30N 53°23' W 002°60'0 0.0
2017-Sep-04 03:00N 53°23' W 002°60'0 0.0
2017-Sep-04 02:30N 53°23' W 002°60'0 0.0
2017-Sep-04 02:00N 53°23' W 002°60'0 0.0
2017-Sep-04 01:30N 53°23' W 002°60'0 0.0
2017-Sep-04 01:00N 53°23' W 002°60'0 0.0
2017-Sep-04 00:30N 53°23' W 002°60'0 0.0
2017-Sep-04 00:00N 53°23' W 002°60'0 0.0
2017-Sep-03 23:30N 53°23' W 002°60'0 0.0
2017-Sep-03 23:00N 53°23' W 002°60'0 0.0
2017-Sep-03 22:30N 53°23' W 002°60'0 0.0
2017-Sep-03 22:00N 53°23' W 002°60'0 0.0
2017-Sep-03 21:27N 53°23' W 002°60'0 0.0
2017-Sep-03 21:00N 53°23' W 002°60'0 0.0
2017-Sep-03 20:30N 53°23' W 002°60'0 0.0
2017-Sep-03 20:00N 53°23' W 002°60'0 0.0
2017-Sep-03 19:24N 53°23' W 002°60'0 0.0
2017-Sep-03 19:00N 53°23' W 002°60'0 0.0
2017-Sep-03 18:24N 53°23' W 002°60'0 0.0
2017-Sep-03 17:54N 53°23' W 002°60'0 0.0
2017-Sep-03 17:27N 53°23' W 002°60'0 0.0
2017-Sep-03 17:00N 53°23' W 002°60'0 0.0
2017-Sep-03 16:30N 53°23' W 002°60'0 0.0
2017-Sep-03 16:00N 53°23' W 002°60'0 0.0
2017-Sep-03 15:30N 53°23' W 002°60'0 0.0
2017-Sep-03 15:00N 53°23' W 002°60'0 0.0
2017-Sep-03 13:54N 53°23' W 002°60'0 0.0
2017-Sep-03 13:27N 53°23' W 002°60'0 0.0
2017-Sep-03 12:57N 53°23' W 002°60'0 0.0
2017-Sep-03 12:30N 53°23' W 002°60'0 0.0
2017-Sep-03 12:00N 53°23' W 002°60'0 0.0
2017-Sep-03 11:30N 53°23' W 002°60'0 0.0
2017-Sep-03 10:57N 53°23' W 002°60'0 0.0
2017-Sep-03 10:30N 53°23' W 002°60'0 0.0
2017-Sep-03 10:00N 53°23' W 002°60'0 0.0
2017-Sep-03 09:30N 53°23' W 002°60'0 0.0
2017-Sep-03 09:00N 53°23' W 002°60'0 0.0
2017-Sep-03 08:30N 53°23' W 002°60'0 0.0
2017-Sep-03 08:00N 53°23' W 002°60'0 0.0
2017-Sep-03 07:30N 53°23' W 002°60'0 0.0
2017-Sep-03 07:00N 53°23' W 002°60'0 0.0
2017-Sep-03 06:30N 53°23' W 002°60'0 0.0
2017-Sep-03 06:00N 53°23' W 002°60'0 0.0
2017-Sep-03 05:27N 53°23' W 002°60'0 0.0
2017-Sep-03 05:00N 53°23' W 002°60'0 0.0
2017-Sep-03 04:30N 53°23' W 002°60'0 0.0
2017-Sep-03 03:54N 53°23' W 002°60'0 0.0
2017-Sep-03 03:30N 53°23' W 002°60'0 0.0
2017-Sep-03 02:48N 53°23' W 002°60'0 0.0
2017-Sep-03 02:30N 53°23' W 002°60'0 0.0
2017-Sep-03 02:00N 53°23' W 002°60'0 0.0
2017-Sep-03 01:30N 53°23' W 002°60'0 0.0
2017-Sep-03 01:00N 53°23' W 002°60'0 0.0
2017-Sep-03 00:30N 53°23' W 002°60'0 0.0
2017-Sep-03 00:00N 53°23' W 002°60'0 0.0
2017-Sep-02 23:30N 53°23' W 002°60'0 0.0
2017-Sep-02 23:00N 53°23' W 002°60'0 0.0
2017-Sep-02 22:27N 53°23' W 002°60'0 0.0
2017-Sep-02 22:00N 53°23' W 002°60'0 0.0
2017-Sep-02 21:30N 53°23' W 002°60'0 0.4
2017-Sep-02 21:00N 53°23' W 002°60'2 3.7
2017-Sep-02 20:30N 53°25' W 003°01'4 8.6
2017-Sep-02 20:00N 53°28' W 003°04'4 8.8
2017-Sep-02 19:30N 53°32' W 003°09'5 9.3
2017-Sep-02 19:00N 53°31' W 003°17'5 9.1
2017-Sep-02 18:30N 53°31' W 003°24'0 1.0
2017-Sep-02 18:00N 53°31' W 003°23'3 5.2
2017-Sep-02 17:30N 53°31' W 003°28'3 6.0
2017-Sep-02 17:00N 53°31' W 003°33'3 6.8
2017-Sep-02 16:30N 53°31' W 003°39'4 7.3
2017-Sep-02 16:00N 53°32' W 003°44'612.5
2017-Sep-02 15:30N 53°35' W 003°53'612.4
2017-Sep-02 15:00N 53°38' W 004°02'4712.8
2017-Sep-02 11:21N 54°08' W 005°04'513.4
2017-Sep-02 11:00N 54°12' W 005°05'713.6
2017-Sep-02 10:30N 54°19' W 005°07'713.6
2017-Sep-02 10:00N 54°26' W 005°10'713.4
2017-Sep-02 09:30N 54°32' W 005°12'713.6
2017-Sep-02 09:00N 54°39' W 005°15'713.9
2017-Sep-02 08:31N 54°45' W 005°21'714.3
2017-Sep-02 08:01N 54°50' W 005°28'714.5
2017-Sep-02 07:31N 54°56' W 005°35'814.9
2017-Sep-02 06:59N 55°03' W 005°43'715.2
2017-Sep-02 06:30N 55°09' W 005°51'815.9
2017-Sep-02 06:00N 55°15' W 005°59'815.5
2017-Sep-02 05:30N 55°21' W 006°07'815.3
2017-Sep-02 05:00N 55°23' W 006°20'714.9
2017-Sep-02 04:30N 55°24' W 006°33'714.7
2017-Sep-02 04:00N 55°26' W 006°46'714.7
2017-Sep-02 03:30N 55°28' W 006°59'714.5
2017-Sep-02 03:00N 55°30' W 007°11'814.3
2017-Sep-02 02:26N 55°30' W 007°25'614.3
2017-Sep-02 01:59N 55°29' W 007°36'914.2
2017-Sep-02 01:23N 55°28' W 007°52'1414.1
2017-Sep-02 00:25N 55°27' W 008°15'1514.3
2017-Sep-01 23:23N 55°24' W 008°41'814.3
2017-Sep-01 22:51N 55°22' W 008°54'514.1
2017-Sep-01 22:29N 55°20' W 009°03'  

Dump ship's entire track history